Time;durP1;ratioP1;P1;durP2;ratioP2;P2;SDS_P1;SDS_P2;PMS_P1;PMS_P2;Temp;Humidity;BMP_temperature;BMP_pressure;BME280_temperature;BME280_humidity;BME280_pressure;Samples;Min_cycle;Max_cycle;Signal;HPM_P1;HPM_P2
2022/06/23 00:00:20;;;;;;;1.73;1.10;;;;;;;17.87;52.88;99615.13;10497016;28;20072;-69
2022/06/23 00:05:25;;;;;;;2.72;1.35;;;;;;;17.76;53.23;99623.00;10496729;28;20036;-69
2022/06/23 00:10:36;;;;;;;3.58;1.58;;;;;;;17.71;53.66;99625.09;10497444;28;20049;-69
2022/06/23 00:15:42;;;;;;;1.48;1.20;;;;;;;17.85;53.48;99637.47;10499442;28;20033;-69
2022/06/23 00:20:49;;;;;;;3.07;1.70;;;;;;;18.16;53.00;99646.84;10501970;28;20048;-69
2022/06/23 00:25:58;;;;;;;2.33;1.10;;;;;;;17.93;53.59;99651.09;10504583;28;20040;-70
2022/06/23 00:31:03;;;;;;;3.60;1.20;;;;;;;17.90;53.01;99645.97;10487535;28;20055;-69
2022/06/23 00:36:28;;;;;;;1.85;1.08;;;;;;;17.71;53.63;99658.75;10505829;28;20036;-69
2022/06/23 00:41:34;;;;;;;2.28;1.90;;;;;;;17.57;53.96;99651.72;10503457;28;20040;-69
2022/06/23 00:46:51;;;;;;;2.55;1.50;;;;;;;17.20;55.56;99646.19;10504907;28;20040;-69
2022/06/23 00:51:56;;;;;;;3.72;1.48;;;;;;;17.16;56.46;99663.25;10505457;28;20049;-69
2022/06/23 00:57:16;;;;;;;3.47;1.50;;;;;;;17.03;56.87;99665.00;10507458;28;20098;-69
2022/06/23 01:02:23;;;;;;;2.83;1.60;;;;;;;16.93;57.46;99680.69;10504983;28;20102;-70
2022/06/23 01:07:37;;;;;;;3.40;1.70;;;;;;;17.11;57.03;99689.28;10507338;28;20377;-69
2022/06/23 01:12:51;;;;;;;6.00;1.98;;;;;;;17.07;57.01;99691.25;10488840;28;20051;-70
2022/06/23 01:18:18;;;;;;;2.92;1.73;;;;;;;16.79;57.23;99704.59;10508798;28;20078;-69
2022/06/23 01:23:22;;;;;;;2.72;1.50;;;;;;;16.80;57.55;99701.84;10505613;28;20056;-69
2022/06/23 01:28:44;;;;;;;2.03;1.40;;;;;;;16.77;58.02;99707.31;10504033;28;20037;-69
2022/06/23 01:34:02;;;;;;;2.25;1.83;;;;;;;16.59;58.50;99719.06;10504375;28;20037;-69
2022/06/23 01:39:32;;;;;;;4.88;2.15;;;;;;;16.35;59.70;99716.97;10506474;28;20045;-70
2022/06/23 01:44:46;;;;;;;2.58;1.70;;;;;;;16.21;60.51;99710.78;10503861;28;20063;-69
2022/06/23 01:49:52;;;;;;;1.65;1.50;;;;;;;16.49;59.25;99707.31;10502696;28;20158;-69
2022/06/23 01:55:04;;;;;;;2.58;1.50;;;;;;;16.26;59.66;99716.66;10502132;28;20032;-69
2022/06/23 02:00:19;;;;;;;3.50;1.75;;;;;;;16.00;60.48;99727.03;10504152;28;20437;-69
2022/06/23 02:05:25;;;;;;;2.40;2.20;;;;;;;16.25;59.91;99730.88;10506377;28;20036;-69
2022/06/23 02:11:06;;;;;;;3.05;1.60;;;;;;;15.93;60.62;99736.25;10485678;28;20052;-69
2022/06/23 02:16:23;;;;;;;2.75;1.70;;;;;;;16.01;60.04;99735.81;10484785;28;20131;-69
2022/06/23 02:21:36;;;;;;;2.50;1.55;;;;;;;16.01;60.26;99736.69;10503300;28;20107;-69
2022/06/23 02:26:57;;;;;;;4.78;1.75;;;;;;;16.02;60.15;99740.19;10487387;28;20040;-69
2022/06/23 02:32:29;;;;;;;3.05;1.70;;;;;;;15.64;61.70;99744.13;10483885;28;20112;-69
2022/06/23 02:38:16;;;;;;;5.90;2.15;;;;;;;15.72;61.92;99751.63;10500165;28;20464;-69
2022/06/23 02:43:31;;;;;;;8.82;2.17;;;;;;;15.68;61.47;99751.91;10495009;28;20079;-69
2022/06/23 02:48:52;;;;;;;4.90;2.10;;;;;;;15.40;62.95;99758.72;10501458;28;20486;-70
2022/06/23 02:54:15;;;;;;;4.85;1.70;;;;;;;15.33;63.56;99755.56;10500549;28;20049;-69
2022/06/23 02:59:41;;;;;;;3.28;1.70;;;;;;;15.49;62.88;99762.63;10482039;28;20068;-71
2022/06/23 03:05:17;;;;;;;2.43;1.67;;;;;;;15.50;62.77;99781.13;10449804;28;20049;-69
2022/06/23 03:10:25;;;;;;;2.35;1.73;;;;;;;15.76;61.02;99781.44;10292522;28;20146;-69
2022/06/23 03:16:09;;;;;;;3.70;1.88;;;;;;;15.49;61.60;99786.47;10291044;28;20089;-69
2022/06/23 03:21:26;;;;;;;4.32;2.25;;;;;;;15.28;62.62;99789.41;10210996;29;20060;-69
2022/06/23 03:26:52;;;;;;;2.63;1.90;;;;;;;15.25;63.21;99784.25;10196102;29;20449;-70
2022/06/23 03:32:23;;;;;;;2.78;2.15;;;;;;;15.54;62.57;99793.25;10211981;29;20581;-69
2022/06/23 03:37:49;;;;;;;3.53;2.13;;;;;;;15.43;63.27;99792.97;10210799;29;20075;-69
2022/06/23 03:43:08;;;;;;;3.50;2.38;;;;;;;15.30;64.60;99803.38;10211259;29;20196;-69
2022/06/23 03:48:19;;;;;;;5.00;2.30;;;;;;;15.61;64.02;99807.00;10315494;28;20051;-69
2022/06/23 03:53:34;;;;;;;3.80;2.15;;;;;;;15.69;63.64;99802.16;10351846;28;20065;-69
2022/06/23 03:58:49;;;;;;;4.85;2.50;;;;;;;15.84;63.20;99811.00;10508500;28;20047;-69
2022/06/23 04:03:57;;;;;;;3.58;2.70;;;;;;;15.81;64.57;99817.38;10491471;28;20054;-69
2022/06/23 04:09:06;;;;;;;4.28;2.80;;;;;;;15.95;64.26;99821.03;10489489;28;20044;-69
2022/06/23 04:14:10;;;;;;;2.75;2.55;;;;;;;16.06;63.59;99823.91;10509534;28;20037;-69
2022/06/23 04:19:27;;;;;;;2.53;2.30;;;;;;;16.22;63.00;99830.03;10506723;28;20047;-69
2022/06/23 04:24:29;;;;;;;2.70;2.38;;;;;;;16.38;62.25;99824.69;10489524;28;20067;-69
2022/06/23 04:29:36;;;;;;;3.65;3.20;;;;;;;16.51;62.22;99840.72;10490027;28;20058;-69
2022/06/23 04:35:04;;;;;;;3.30;2.90;;;;;;;16.86;60.88;99835.97;10509166;28;20036;-69
2022/06/23 04:40:28;;;;;;;4.30;3.08;;;;;;;17.06;60.48;99842.75;10500999;28;20067;-69
2022/06/23 04:45:52;;;;;;;3.75;3.45;;;;;;;17.06;60.08;99851.56;10505282;28;20058;-69
2022/06/23 04:51:05;;;;;;;2.92;2.65;;;;;;;17.24;59.69;99856.69;10488441;28;20040;-70
2022/06/23 04:56:28;;;;;;;3.50;3.20;;;;;;;17.44;59.31;99858.06;10507790;28;20059;-70
2022/06/23 05:01:38;;;;;;;4.25;3.65;;;;;;;17.85;58.50;99851.03;10488160;28;20044;-73
2022/06/23 05:06:44;;;;;;;4.40;3.20;;;;;;;18.07;57.49;99855.78;10487099;28;20044;-72
2022/06/23 05:11:56;;;;;;;4.15;3.75;;;;;;;18.61;56.63;99852.22;10506829;28;20045;-73
2022/06/23 05:17:29;;;;;;;4.75;2.72;;;;;;;19.32;53.81;99861.53;10506679;28;20152;-73
2022/06/23 05:22:45;;;;;;;8.25;3.50;;;;;;;19.59;52.57;99866.69;10489164;28;20099;-74
2022/06/23 05:27:49;;;;;;;5.35;3.22;;;;;;;20.09;51.71;99868.38;10489596;28;20535;-72
2022/06/23 05:33:00;;;;;;;3.83;3.28;;;;;;;20.53;50.58;99861.56;10506147;28;20045;-73
2022/06/23 05:38:08;;;;;;;3.92;2.60;;;;;;;21.35;49.41;99865.03;10488508;28;20102;-73
2022/06/23 05:43:16;;;;;;;4.47;3.35;;;;;;;22.03;46.82;99867.59;10504836;28;20123;-73
2022/06/23 05:48:24;;;;;;;6.20;4.15;;;;;;;21.90;46.79;99873.09;10502797;28;20039;-72
2022/06/23 05:53:33;;;;;;;5.32;3.20;;;;;;;22.65;45.37;99872.25;10501670;28;20048;-73
2022/06/23 05:58:40;;;;;;;6.35;3.67;;;;;;;22.71;44.78;99870.88;10485417;28;20052;-72
2022/06/23 06:03:56;;;;;;;7.10;2.88;;;;;;;23.14;42.79;99868.09;10504266;28;20048;-73
2022/06/23 06:14:26;;;;;;;5.70;2.45;;;;;;;23.50;42.39;99874.75;10502037;28;20293;-73
2022/06/23 06:19:31;;;;;;;4.93;2.78;;;;;;;23.60;41.90;99883.69;10501462;28;20138;-73
2022/06/23 06:24:42;;;;;;;5.82;3.13;;;;;;;23.69;42.25;99878.53;10502931;28;20060;-74
2022/06/23 06:29:44;;;;;;;5.53;2.20;;;;;;;24.79;40.96;99873.84;10500585;28;20055;-74
2022/06/23 06:34:51;;;;;;;7.38;2.30;;;;;;;24.66;41.20;99876.84;10501766;28;20040;-74
2022/06/23 06:39:57;;;;;;;5.10;2.05;;;;;;;24.93;40.28;99876.09;10500800;28;20098;-73
2022/06/23 06:45:04;;;;;;;5.40;2.42;;;;;;;24.98;40.89;99878.34;10502637;28;20068;-74
2022/06/23 06:50:17;;;;;;;4.90;2.17;;;;;;;25.48;39.79;99887.00;10501655;28;20051;-74
2022/06/23 06:55:27;;;;;;;4.53;1.85;;;;;;;25.50;39.56;99901.16;10501302;28;20456;-73
2022/06/23 07:01:03;;;;;;;5.75;2.05;;;;;;;25.78;40.20;99902.06;10502834;28;20143;-74
2022/06/23 07:06:21;;;;;;;2.45;1.60;;;;;;;26.04;38.76;99894.13;10484807;28;20054;-74
2022/06/23 07:11:28;;;;;;;4.63;2.08;;;;;;;26.06;37.82;99897.50;10481664;28;20036;-73
2022/06/23 07:16:37;;;;;;;6.88;2.25;;;;;;;26.04;37.96;99899.50;10499051;28;20058;-74
2022/06/23 07:21:44;;;;;;;4.13;2.10;;;;;;;26.59;37.03;99895.84;10480689;28;20493;-73
2022/06/23 07:27:14;;;;;;;3.08;2.05;;;;;;;27.23;34.97;99901.97;10500944;28;20504;-74
2022/06/23 07:32:20;;;;;;;3.40;1.90;;;;;;;27.55;35.62;99906.69;10483559;28;20051;-74
2022/06/23 07:37:28;;;;;;;4.22;1.88;;;;;;;27.46;35.04;99897.69;10481857;28;20070;-74
2022/06/23 07:42:53;;;;;;;3.97;1.80;;;;;;;27.52;34.17;99901.59;10499513;28;20071;-74
2022/06/23 07:47:56;;;;;;;3.10;1.70;;;;;;;27.66;35.42;99904.53;10485254;28;20063;-74
2022/06/23 07:52:59;;;;;;;6.68;1.90;;;;;;;28.27;32.99;99907.97;10483483;28;20090;-74
2022/06/23 07:58:01;;;;;;;2.78;1.75;;;;;;;28.70;33.65;99905.19;10498361;28;20105;-72
2022/06/23 08:03:11;;;;;;;2.75;1.15;;;;;;;28.40;32.81;99908.38;10480861;28;20066;-73
2022/06/23 08:08:19;;;;;;;4.35;1.75;;;;;;;28.04;33.35;99901.50;10500196;28;20117;-73
2022/06/23 08:13:27;;;;;;;2.97;1.30;;;;;;;28.56;32.63;99896.75;10502212;28;20053;-73
2022/06/23 08:18:34;;;;;;;4.25;1.40;;;;;;;29.05;31.85;99899.47;10498005;28;20073;-74
2022/06/23 08:23:48;;;;;;;5.82;1.75;;;;;;;28.67;32.57;99898.25;10496148;28;20075;-73
2022/06/23 08:28:54;;;;;;;3.67;1.70;;;;;;;29.29;29.88;99892.31;10498621;28;20041;-72
2022/06/23 08:33:58;;;;;;;3.88;1.40;;;;;;;29.56;30.37;99889.19;10481616;28;20059;-72
2022/06/23 08:39:07;;;;;;;4.85;1.27;;;;;;;29.70;30.51;99889.47;10498267;28;20064;-73
2022/06/23 08:44:19;;;;;;;3.20;1.40;;;;;;;29.75;30.39;99887.09;10505596;28;20102;-74
2022/06/23 08:49:44;;;;;;;5.05;1.48;;;;;;;30.24;29.34;99881.44;10506222;28;20398;-74
2022/06/23 08:55:08;;;;;;;2.72;1.40;;;;;;;31.01;28.78;99884.91;10505501;28;20045;-73
2022/06/23 09:00:42;;;;;;;4.38;1.38;;;;;;;31.90;26.93;99869.50;10505933;28;20101;-73
2022/06/23 09:05:47;;;;;;;3.08;1.65;;;;;;;31.75;27.10;99867.81;10485853;28;20041;-74
2022/06/23 09:11:05;;;;;;;3.28;1.20;;;;;;;32.07;27.11;99866.56;10485157;28;20051;-74
2022/06/23 09:16:35;;;;;;;2.05;1.00;;;;;;;32.24;25.04;99856.28;10485103;28;20128;-74
2022/06/23 09:21:51;;;;;;;4.38;1.45;;;;;;;31.78;26.18;99854.69;10504665;28;20044;-73
2022/06/23 09:27:25;;;;;;;1.73;1.10;;;;;;;31.78;25.97;99862.81;10503426;28;20059;-74
2022/06/23 09:32:56;;;;;;;2.83;0.80;;;;;;;31.60;23.91;99849.66;10503619;28;20040;-74
2022/06/23 09:38:17;;;;;;;1.58;0.60;;;;;;;32.05;22.88;99852.28;10504313;28;20562;-73
2022/06/23 09:44:00;;;;;;;1.73;1.20;;;;;;;32.89;23.83;99844.31;10505892;28;20040;-74
2022/06/23 09:49:17;;;;;;;1.60;0.90;;;;;;;33.45;21.69;99840.75;10490609;28;20049;-74
2022/06/23 09:54:27;;;;;;;2.47;1.00;;;;;;;33.66;20.35;99842.53;10502980;28;20041;-74
2022/06/23 09:59:48;;;;;;;1.75;0.80;;;;;;;33.83;20.48;99830.22;10485737;28;20033;-73
2022/06/23 10:05:11;;;;;;;1.27;0.82;;;;;;;34.03;20.28;99827.59;10504723;28;20052;-73
2022/06/23 10:10:34;;;;;;;2.47;0.82;;;;;;;33.62;21.86;99829.31;10506444;28;20072;-74
2022/06/23 10:15:53;;;;;;;2.22;0.88;;;;;;;33.60;21.52;99827.81;10502513;28;20112;-74
2022/06/23 10:21:32;;;;;;;1.40;0.75;;;;;;;34.13;21.89;99812.50;10502264;28;20072;-73
2022/06/23 10:27:11;;;;;;;1.35;0.80;;;;;;;34.29;21.78;99805.81;10505203;28;20064;-74
2022/06/23 10:32:31;;;;;;;1.90;0.85;;;;;;;34.41;21.26;99806.03;10501549;28;20040;-73
2022/06/23 10:37:44;;;;;;;0.95;0.73;;;;;;;34.58;20.39;99796.41;10502250;28;20037;-73
2022/06/23 10:43:28;;;;;;;1.10;0.80;;;;;;;34.50;20.64;99790.31;10502817;28;20044;-73
2022/06/23 10:48:44;;;;;;;2.38;0.82;;;;;;;34.76;20.17;99784.84;10504751;28;20398;-73
2022/06/23 10:54:14;;;;;;;1.20;0.80;;;;;;;35.17;19.11;99785.63;10483764;28;20454;-73
2022/06/23 10:59:58;;;;;;;2.47;0.90;;;;;;;33.98;19.70;99791.91;10500498;22;20206;-71
2022/06/23 11:05:17;;;;;;;2.08;1.00;;;;;;;33.55;19.92;99786.72;10540534;28;20040;-71
2022/06/23 11:10:38;;;;;;;1.98;0.60;;;;;;;33.34;19.11;99779.50;10541031;28;20040;-71
2022/06/23 11:15:55;;;;;;;1.38;0.70;;;;;;;33.81;20.25;99775.06;10522310;28;20055;-71
2022/06/23 11:20:57;;;;;;;1.33;0.77;;;;;;;33.43;20.07;99772.81;10540070;28;20040;-71
2022/06/23 11:26:38;;;;;;;1.88;0.88;;;;;;;33.75;18.96;99770.44;10540061;28;20036;-71
2022/06/23 11:32:13;;;;;;;2.88;1.00;;;;;;;34.03;19.67;99757.50;10493149;28;20086;-71
2022/06/23 11:37:49;;;;;;;6.78;1.05;;;;;;;34.13;18.88;99749.78;10521879;28;20044;-70
2022/06/23 11:43:02;;;;;;;1.10;0.68;;;;;;;34.56;18.20;99743.91;10539897;28;20101;-71
2022/06/23 11:48:13;;;;;;;2.10;0.90;;;;;;;34.99;18.70;99740.72;10522619;28;20443;-71
2022/06/23 11:53:20;;;;;;;0.82;0.70;;;;;;;35.79;15.82;99737.63;10521303;28;20044;-71
2022/06/23 11:58:52;;;;;;;2.60;0.73;;;;;;;35.49;17.96;99737.38;10521274;28;20085;-71
2022/06/23 12:04:35;;;;;;;1.38;0.85;;;;;;;34.74;16.66;99736.94;10512685;28;20147;-71
2022/06/23 12:09:56;;;;;;;1.58;0.55;;;;;;;33.99;17.21;99728.97;10484740;28;20050;-71
2022/06/23 12:14:57;;;;;;;1.45;0.90;;;;;;;35.23;17.60;99720.00;10522731;28;20044;-71
2022/06/23 12:20:20;;;;;;;0.98;0.70;;;;;;;35.06;17.45;99721.56;10529555;28;20050;-72
2022/06/23 12:25:43;;;;;;;1.85;0.60;;;;;;;35.07;17.81;99696.78;10530158;28;20044;-72
2022/06/23 12:31:28;;;;;;;1.75;0.52;;;;;;;35.17;17.98;99701.78;10528504;28;20048;-71
2022/06/23 12:36:54;;;;;;;1.23;0.55;;;;;;;35.25;17.46;99701.53;10541871;28;20131;-71
2022/06/23 12:42:02;;;;;;;1.50;0.57;;;;;;;35.30;16.67;99695.41;10545574;28;20044;-71
2022/06/23 12:47:23;;;;;;;3.17;0.63;;;;;;;35.48;16.14;99690.09;10527948;28;20541;-72
2022/06/23 12:52:50;;;;;;;1.50;0.70;;;;;;;35.35;16.84;99684.66;10527567;28;20510;-71
2022/06/23 12:58:01;;;;;;;0.65;0.50;;;;;;;34.93;15.01;99681.47;10527470;28;20052;-71
2022/06/23 13:03:21;;;;;;;1.50;0.60;;;;;;;34.51;16.83;99678.19;10527109;28;20101;-70
2022/06/23 13:08:38;;;;;;;1.35;0.70;;;;;;;34.72;16.91;99679.00;10545000;28;20123;-72
2022/06/23 13:13:56;;;;;;;1.50;0.80;;;;;;;34.55;17.92;99668.53;10544913;28;20093;-71
2022/06/23 13:19:07;;;;;;;2.85;0.70;;;;;;;34.66;18.25;99668.94;10527060;28;20114;-71
2022/06/23 13:24:14;;;;;;;0.40;0.40;;;;;;;34.55;17.51;99665.81;10527333;28;20089;-71
2022/06/23 13:29:22;;;;;;;6.68;0.75;;;;;;;34.04;16.90;99663.72;10526395;28;20044;-73
2022/06/23 13:34:30;;;;;;;1.02;0.70;;;;;;;34.63;18.54;99654.66;10527139;28;20048;-72
2022/06/23 13:39:50;;;;;;;0.90;0.80;;;;;;;34.49;16.70;99652.16;10545063;28;20135;-72
2022/06/23 13:45:27;;;;;;;2.10;0.68;;;;;;;34.37;16.75;99644.63;10544045;28;20087;-72
2022/06/23 13:50:39;;;;;;;2.55;0.60;;;;;;;33.59;17.92;99635.38;10521977;28;20139;-73
2022/06/23 13:55:55;;;;;;;1.52;0.55;;;;;;;33.73;17.17;99625.31;10543540;28;20408;-73
2022/06/23 14:01:17;;;;;;;4.53;0.60;;;;;;;33.72;18.03;99629.09;10542355;28;20050;-72
2022/06/23 14:06:46;;;;;;;1.20;0.57;;;;;;;34.24;18.70;99616.53;10523032;28;20127;-72
2022/06/23 14:12:04;;;;;;;1.75;0.63;;;;;;;34.20;16.22;99610.66;10541853;28;20374;-71
2022/06/23 14:17:19;;;;;;;1.80;0.60;;;;;;;34.18;16.19;99598.25;10542147;28;20119;-72
2022/06/23 14:22:46;;;;;;;0.60;0.60;;;;;;;33.80;16.43;99605.19;10541977;28;20477;-71
2022/06/23 14:28:06;;;;;;;1.15;0.60;;;;;;;33.87;16.76;99603.31;10541267;28;20066;-72
2022/06/23 14:33:17;;;;;;;4.32;0.75;;;;;;;34.23;16.97;99598.50;10541424;28;20047;-72
2022/06/23 14:38:57;;;;;;;2.15;0.65;;;;;;;34.53;15.93;99594.25;10523091;28;20036;-73
2022/06/23 14:44:05;;;;;;;1.08;0.60;;;;;;;34.06;15.76;99588.00;10540225;28;20060;-73
2022/06/23 14:49:08;;;;;;;1.55;0.60;;;;;;;34.28;15.35;99585.88;10543691;28;20040;-71
2022/06/23 14:54:16;;;;;;;2.67;0.60;;;;;;;34.47;15.63;99577.88;10540100;28;20192;-72
2022/06/23 14:59:26;;;;;;;2.50;0.70;;;;;;;35.05;15.89;99578.69;10540696;28;20040;-72
2022/06/23 15:04:50;;;;;;;0.80;0.73;;;;;;;35.03;16.74;99569.88;10540955;28;20416;-73
2022/06/23 15:10:06;;;;;;;0.93;0.63;;;;;;;34.83;17.31;99567.22;10541197;28;20127;-72
2022/06/23 15:15:38;;;;;;;0.90;0.65;;;;;;;34.30;18.58;99572.00;10539921;28;20327;-72
2022/06/23 15:23:09;;;;;;;2.30;0.70;;;;;;;34.38;18.68;99569.06;10521793;28;20151;-73
2022/06/23 15:26:41;;;;;;;1.77;1.00;;;;;;;35.03;17.89;99553.50;10539793;28;20086;-73
2022/06/23 15:31:55;;;;;;;1.60;0.70;;;;;;;35.39;17.87;99552.00;10539780;28;20464;-74
2022/06/23 15:37:19;;;;;;;1.25;0.75;;;;;;;35.77;18.19;99553.78;10521641;28;20075;-73
2022/06/23 15:42:39;;;;;;;1.53;0.70;;;;;;;36.16;18.24;99554.50;10539845;28;20075;-71
2022/06/23 15:47:47;;;;;;;;;;;;;;;36.49;17.71;99548.69;10540469;28;20044;-71
2022/06/23 15:52:58;;;;;;;0.82;0.82;;;;;;;36.40;17.98;99556.34;10548179;28;19920;-70
2022/06/23 15:58:04;;;;;;;1.23;0.60;;;;;;;35.87;18.12;99535.00;10548915;28;20093;-70
2022/06/23 16:03:28;;;;;;;1.65;0.60;;;;;;;34.81;18.60;99533.00;10548984;28;20051;-72
2022/06/23 16:14:47;;;;;;;1.92;0.65;;;;;;;34.86;19.48;99527.72;10547909;28;20350;-72
2022/06/23 16:19:57;;;;;;;2.63;0.80;;;;;;;34.12;19.81;99529.88;10547862;28;20051;-72
2022/06/23 16:25:08;;;;;;;1.13;0.80;;;;;;;33.88;20.42;99527.81;10547161;28;20048;-71
2022/06/23 16:30:46;;;;;;;1.25;0.70;;;;;;;33.27;20.65;99517.94;10547601;28;20048;-72
2022/06/23 16:35:56;;;;;;;1.45;0.70;;;;;;;32.95;22.33;99516.88;10336690;28;20063;-72
2022/06/23 16:41:40;;;;;;;1.75;0.80;;;;;;;33.06;21.58;99513.53;10321198;28;20117;-72
2022/06/23 16:47:23;;;;;;;2.10;0.88;;;;;;;32.50;22.22;99508.34;10336862;28;20076;-73
2022/06/23 16:52:39;;;;;;;0.98;0.77;;;;;;;32.32;23.04;99510.75;10320589;28;20066;-71
2022/06/23 16:57:48;;;;;;;0.90;0.90;;;;;;;31.89;23.35;99517.19;10336456;28;20141;-71
2022/06/23 17:03:08;;;;;;;1.40;0.80;;;;;;;31.57;23.97;99517.78;10501379;23;20054;-74
2022/06/23 17:08:21;;;;;;;1.23;0.82;;;;;;;31.36;24.52;99524.06;10547658;28;20036;-75
2022/06/23 17:13:28;;;;;;;1.17;1.00;;;;;;;31.20;24.62;99513.44;10549431;28;20126;-74
2022/06/23 17:18:43;;;;;;;2.75;1.00;;;;;;;31.07;24.72;99525.84;10547878;28;20051;-75
2022/06/23 17:23:49;;;;;;;1.95;0.98;;;;;;;30.79;25.12;99517.63;10545620;28;20044;-73
2022/06/23 17:29:20;;;;;;;2.00;0.80;;;;;;;30.67;25.71;99516.41;10547089;28;20044;-74
2022/06/23 17:34:41;;;;;;;1.90;1.00;;;;;;;30.65;25.93;99513.03;10545134;28;20519;-75
2022/06/23 17:45:24;;;;;;;1.65;0.82;;;;;;;30.37;27.01;99519.19;10546175;28;20074;-73
2022/06/23 17:50:32;;;;;;;2.75;1.00;;;;;;;30.02;26.90;99518.06;10545946;28;20046;-74
2022/06/23 17:55:40;;;;;;;0.98;0.85;;;;;;;30.13;27.13;99520.28;10545963;28;20086;-75
2022/06/23 18:00:45;;;;;;;4.10;1.05;;;;;;;29.92;27.25;99523.72;10547801;28;20489;-73
2022/06/23 18:05:54;;;;;;;;;;;;;;;29.83;26.84;99527.53;10547045;28;20061;-75
2022/06/23 18:11:00;;;;;;;1.38;0.80;;;;;;;29.59;27.12;99535.94;10548318;28;19920;-74
2022/06/23 18:16:20;;;;;;;1.13;0.70;;;;;;;29.65;27.51;99536.03;10545923;28;20047;-75
2022/06/23 18:21:48;;;;;;;1.77;1.05;;;;;;;29.38;28.36;99531.16;10545851;28;20047;-73
2022/06/23 18:27:00;;;;;;;1.67;0.95;;;;;;;29.48;28.20;99539.03;10543769;28;20118;-74
2022/06/23 18:32:15;;;;;;;1.63;0.90;;;;;;;29.29;28.43;99546.63;10545960;28;20048;-75
2022/06/23 18:37:22;;;;;;;2.00;0.88;;;;;;;29.25;28.29;99547.19;10544833;28;20109;-74
2022/06/23 18:42:37;;;;;;;1.95;1.00;;;;;;;29.00;28.41;99541.09;10548055;28;20044;-74
2022/06/23 18:47:42;;;;;;;;;;;;;;;29.05;28.45;99534.13;10543472;28;20485;-73
2022/06/23 18:52:58;;;;;;;2.88;1.10;;;;;;;28.71;28.58;99531.78;10544240;28;19942;-73
2022/06/23 18:58:05;;;;;;;4.28;0.93;;;;;;;28.58;29.77;99545.03;10546754;28;20101;-72
2022/06/23 19:03:10;;;;;;;2.42;0.90;;;;;;;28.53;28.92;99550.97;10543792;28;20044;-73
2022/06/23 19:08:21;;;;;;;2.90;1.10;;;;;;;28.33;28.86;99555.06;10542615;28;20421;-75
2022/06/23 19:13:23;;;;;;;1.75;1.20;;;;;;;28.05;29.96;99560.91;10544699;28;20051;-74
2022/06/23 19:18:55;;;;;;;3.33;1.58;;;;;;;28.02;30.16;99566.63;10542480;28;20063;-73
2022/06/23 19:24:26;;;;;;;3.22;1.23;;;;;;;27.69;30.33;99568.53;10515254;28;20139;-74
2022/06/23 19:29:48;;;;;;;1.95;1.00;;;;;;;27.35;30.87;99564.13;10544961;28;20563;-74
2022/06/23 19:34:56;;;;;;;1.67;0.93;;;;;;;26.96;31.55;99565.72;10540520;28;20052;-73
2022/06/23 19:40:19;;;;;;;1.17;1.02;;;;;;;26.82;32.28;99568.06;10540144;28;20032;-72
2022/06/23 19:45:29;;;;;;;1.52;1.10;;;;;;;26.91;31.55;99568.94;10539888;28;20048;-73
2022/06/23 19:50:36;;;;;;;1.73;1.10;;;;;;;26.82;32.19;99565.38;10544634;28;20032;-74
2022/06/23 19:55:40;;;;;;;11.15;1.38;;;;;;;26.42;33.16;99568.72;10545153;28;20094;-73
2022/06/23 20:00:48;;;;;;;4.03;1.55;;;;;;;26.38;33.62;99570.06;10540219;28;20051;-73
2022/06/23 20:06:09;;;;;;;1.90;1.10;;;;;;;25.91;35.07;99570.50;10543258;28;20040;-73
2022/06/23 20:11:24;;;;;;;2.85;1.25;;;;;;;25.86;35.78;99580.88;10542564;28;20062;-73
2022/06/23 20:16:42;;;;;;;1.27;1.08;;;;;;;25.56;35.95;99574.06;10541088;28;20131;-73
2022/06/23 20:22:34;;;;;;;1.25;1.10;;;;;;;25.43;36.66;99574.47;10544063;28;20094;-75
2022/06/23 20:28:13;;;;;;;1.30;1.20;;;;;;;25.32;37.29;99572.00;10502248;28;20055;-75
2022/06/23 20:33:22;;;;;;;2.15;1.50;;;;;;;24.97;38.50;99559.34;10542033;28;20056;-75
2022/06/23 20:38:42;;;;;;;2.13;1.52;;;;;;;24.77;38.50;99561.34;10549658;28;20063;-75
2022/06/23 20:44:19;;;;;;;3.85;1.50;;;;;;;24.65;38.99;99560.69;10549689;28;20067;-75
2022/06/23 20:49:26;;;;;;;5.30;1.77;;;;;;;24.41;39.31;99561.25;10544918;28;20054;-75
2022/06/23 20:54:44;;;;;;;2.13;1.70;;;;;;;24.06;40.67;99562.78;10550004;28;20088;-75
2022/06/23 21:00:03;;;;;;;2.33;1.30;;;;;;;24.09;41.13;99570.53;10550767;28;20057;-75
2022/06/23 21:05:11;;;;;;;2.88;1.60;;;;;;;23.76;41.35;99563.00;10531940;28;20052;-75
2022/06/23 21:10:38;;;;;;;3.92;1.73;;;;;;;23.45;41.75;99571.19;10547100;28;20052;-76
2022/06/23 21:16:05;;;;;;;1.50;1.35;;;;;;;23.38;41.72;99575.44;10548357;28;20063;-76
2022/06/23 21:21:15;;;;;;;2.25;1.40;;;;;;;23.25;42.08;99578.41;10552238;28;20040;-76
2022/06/23 21:26:23;;;;;;;5.10;1.55;;;;;;;23.18;42.07;99571.91;10551896;28;20043;-76
2022/06/23 21:31:44;;;;;;;3.22;1.77;;;;;;;23.02;42.18;99566.22;10549902;28;20040;-74
2022/06/23 21:36:49;;;;;;;2.67;1.80;;;;;;;22.79;42.92;99571.81;10547609;28;20502;-76
2022/06/23 21:41:59;;;;;;;1.40;1.30;;;;;;;22.65;42.44;99570.38;10548753;28;20056;-76
2022/06/23 21:47:08;;;;;;;1.77;1.40;;;;;;;22.71;42.74;99570.81;10546911;28;20089;-76
2022/06/23 21:52:47;;;;;;;3.90;1.48;;;;;;;22.49;42.71;99577.22;10545824;28;20115;-75
2022/06/23 21:58:00;;;;;;;7.70;1.60;;;;;;;22.40;42.95;99565.50;10543738;28;20055;-74
2022/06/23 22:03:29;;;;;;;2.63;1.67;;;;;;;22.01;43.57;99568.00;10544835;28;20048;-76
2022/06/23 22:09:12;;;;;;;3.67;1.52;;;;;;;22.14;42.68;99565.97;10549337;28;20545;-75
2022/06/23 22:14:39;;;;;;;2.30;1.40;;;;;;;21.96;42.78;99575.56;10519162;28;20047;-75
2022/06/23 22:19:51;;;;;;;3.55;1.80;;;;;;;21.82;43.29;99574.06;10547085;28;20032;-74
2022/06/23 22:30:33;;;;;;;2.70;1.70;;;;;;;21.42;44.68;99574.75;10546661;28;20050;-75
2022/06/23 22:35:35;;;;;;;2.45;1.50;;;;;;;21.44;45.33;99571.13;10545625;28;20484;-72
2022/06/23 22:41:04;;;;;;;1.90;1.55;;;;;;;21.44;44.43;99563.97;10543714;28;20040;-72
2022/06/23 22:46:09;;;;;;;3.10;1.40;;;;;;;21.19;44.90;99574.97;10544490;28;20067;-71
2022/06/23 22:51:17;;;;;;;1.55;1.10;;;;;;;21.15;45.22;99580.56;10544114;28;20123;-72
2022/06/23 22:56:52;;;;;;;1.48;1.35;;;;;;;21.13;44.96;99579.00;10543613;28;20397;-72
2022/06/23 23:02:21;;;;;;;1.90;1.08;;;;;;;21.19;44.38;99574.97;10483660;22;20078;-72
2022/06/23 23:07:35;;;;;;;1.10;1.00;;;;;;;21.32;44.07;99570.34;10520037;28;20551;-72
2022/06/23 23:12:57;;;;;;;2.22;1.20;;;;;;;21.41;43.96;99569.56;10584522;28;20046;-72
2022/06/23 23:18:42;;;;;;;2.63;1.20;;;;;;;21.54;43.77;99577.41;10564647;28;20050;-73
2022/06/23 23:23:54;;;;;;;1.92;1.20;;;;;;;21.53;44.17;99576.56;10563088;28;20051;-72
2022/06/23 23:28:56;;;;;;;3.08;1.20;;;;;;;21.40;44.66;99570.53;10583058;28;20036;-72
2022/06/23 23:33:58;;;;;;;1.05;1.00;;;;;;;21.45;44.59;99576.34;10564286;28;20113;-73
2022/06/23 23:39:13;;;;;;;2.30;1.23;;;;;;;21.39;44.71;99579.56;10582309;28;20035;-72
2022/06/23 23:44:15;;;;;;;1.73;1.00;;;;;;;21.49;44.94;99580.47;10563907;28;20075;-73
2022/06/23 23:49:34;;;;;;;3.20;1.30;;;;;;;21.66;44.90;99574.53;10547203;28;20144;-73
2022/06/23 23:54:42;;;;;;;2.15;1.30;;;;;;;21.41;45.64;99575.75;10582240;28;20046;-72
2022/06/23 23:59:51;;;;;;;2.08;1.27;;;;;;;21.51;45.56;99578.50;10564007;28;20507;-73
